sensor_id;sensor_type;location;lat;lon;timestamp;P1;durP1;ratioP1;P2;durP2;ratioP2
5776;SDS011;2914;42.668;23.346;2023-03-24T00:00:49;25.57;;;16.03;;
5776;SDS011;2914;42.668;23.346;2023-03-24T00:03:18;22.30;;;14.60;;
5776;SDS011;2914;42.668;23.346;2023-03-24T00:05:53;24.70;;;14.60;;
5776;SDS011;2914;42.668;23.346;2023-03-24T00:08:26;32.77;;;14.30;;
5776;SDS011;2914;42.668;23.346;2023-03-24T00:10:59;22.73;;;14.40;;
5776;SDS011;2914;42.668;23.346;2023-03-24T00:13:31;21.37;;;14.53;;
5776;SDS011;2914;42.668;23.346;2023-03-24T00:16:04;22.67;;;14.10;;
5776;SDS011;2914;42.668;23.346;2023-03-24T00:18:35;23.90;;;14.63;;
5776;SDS011;2914;42.668;23.346;2023-03-24T00:21:06;23.90;;;14.50;;
5776;SDS011;2914;42.668;23.346;2023-03-24T00:23:44;29.40;;;13.27;;
5776;SDS011;2914;42.668;23.346;2023-03-24T00:26:15;32.20;;;16.03;;
5776;SDS011;2914;42.668;23.346;2023-03-24T00:28:45;25.93;;;15.50;;
5776;SDS011;2914;42.668;23.346;2023-03-24T00:31:16;24.30;;;14.07;;
5776;SDS011;2914;42.668;23.346;2023-03-24T00:33:46;28.90;;;13.90;;
5776;SDS011;2914;42.668;23.346;2023-03-24T00:36:16;17.80;;;12.93;;
5776;SDS011;2914;42.668;23.346;2023-03-24T00:38:48;19.60;;;13.63;;
5776;SDS011;2914;42.668;23.346;2023-03-24T00:41:18;26.53;;;14.60;;
5776;SDS011;2914;42.668;23.346;2023-03-24T00:43:56;19.73;;;14.00;;
5776;SDS011;2914;42.668;23.346;2023-03-24T00:46:28;28.80;;;15.40;;
5776;SDS011;2914;42.668;23.346;2023-03-24T00:48:59;33.30;;;16.40;;
5776;SDS011;2914;42.668;23.346;2023-03-24T00:51:33;40.03;;;15.50;;
5776;SDS011;2914;42.668;23.346;2023-03-24T00:54:03;26.63;;;15.03;;
5776;SDS011;2914;42.668;23.346;2023-03-24T00:56:35;31.00;;;16.20;;
5776;SDS011;2914;42.668;23.346;2023-03-24T00:59:05;46.23;;;17.63;;
5776;SDS011;2914;42.668;23.346;2023-03-24T01:01:36;27.10;;;16.00;;
5776;SDS011;2914;42.668;23.346;2023-03-24T01:04:06;29.27;;;17.20;;
5776;SDS011;2914;42.668;23.346;2023-03-24T01:06:36;28.63;;;16.20;;
5776;SDS011;2914;42.668;23.346;2023-03-24T01:09:06;27.40;;;17.03;;
5776;SDS011;2914;42.668;23.346;2023-03-24T01:11:38;29.60;;;16.57;;
5776;SDS011;2914;42.668;23.346;2023-03-24T01:14:10;28.00;;;16.47;;
5776;SDS011;2914;42.668;23.346;2023-03-24T01:16:40;29.00;;;15.30;;
5776;SDS011;2914;42.668;23.346;2023-03-24T01:19:09;23.43;;;14.83;;
5776;SDS011;2914;42.668;23.346;2023-03-24T01:21:38;31.40;;;16.60;;
5776;SDS011;2914;42.668;23.346;2023-03-24T01:24:08;26.97;;;17.70;;
5776;SDS011;2914;42.668;23.346;2023-03-24T01:26:38;24.00;;;16.70;;
5776;SDS011;2914;42.668;23.346;2023-03-24T01:29:07;27.80;;;17.60;;
5776;SDS011;2914;42.668;23.346;2023-03-24T01:31:37;24.87;;;15.97;;
5776;SDS011;2914;42.668;23.346;2023-03-24T01:34:06;30.13;;;17.50;;
5776;SDS011;2914;42.668;23.346;2023-03-24T01:36:37;31.53;;;19.30;;
5776;SDS011;2914;42.668;23.346;2023-03-24T01:39:06;28.87;;;17.77;;
5776;SDS011;2914;42.668;23.346;2023-03-24T01:41:45;26.80;;;16.13;;
5776;SDS011;2914;42.668;23.346;2023-03-24T01:44:25;27.80;;;16.67;;
5776;SDS011;2914;42.668;23.346;2023-03-24T01:46:55;29.33;;;16.20;;
5776;SDS011;2914;42.668;23.346;2023-03-24T01:49:26;29.20;;;17.00;;
5776;SDS011;2914;42.668;23.346;2023-03-24T01:51:59;30.10;;;17.30;;
5776;SDS011;2914;42.668;23.346;2023-03-24T01:54:31;26.37;;;17.10;;
5776;SDS011;2914;42.668;23.346;2023-03-24T01:57:17;23.13;;;16.33;;
5776;SDS011;2914;42.668;23.346;2023-03-24T01:59:50;28.30;;;17.00;;
5776;SDS011;2914;42.668;23.346;2023-03-24T02:02:21;36.60;;;16.77;;
5776;SDS011;2914;42.668;23.346;2023-03-24T02:04:52;30.47;;;15.70;;
5776;SDS011;2914;42.668;23.346;2023-03-24T02:07:27;30.00;;;17.50;;
5776;SDS011;2914;42.668;23.346;2023-03-24T02:09:58;26.83;;;15.83;;
5776;SDS011;2914;42.668;23.346;2023-03-24T02:12:30;29.90;;;17.87;;
5776;SDS011;2914;42.668;23.346;2023-03-24T02:15:00;31.03;;;17.80;;
5776;SDS011;2914;42.668;23.346;2023-03-24T02:17:45;28.27;;;16.90;;
5776;SDS011;2914;42.668;23.346;2023-03-24T02:20:30;27.93;;;17.20;;
5776;SDS011;2914;42.668;23.346;2023-03-24T02:23:39;31.83;;;18.33;;
5776;SDS011;2914;42.668;23.346;2023-03-24T02:26:40;29.53;;;17.43;;
5776;SDS011;2914;42.668;23.346;2023-03-24T02:32:40;34.00;;;18.70;;
5776;SDS011;2914;42.668;23.346;2023-03-24T02:35:22;32.13;;;17.90;;
5776;SDS011;2914;42.668;23.346;2023-03-24T02:38:04;37.40;;;18.27;;
5776;SDS011;2914;42.668;23.346;2023-03-24T02:40:52;38.03;;;17.73;;
5776;SDS011;2914;42.668;23.346;2023-03-24T02:43:28;26.47;;;16.63;;
5776;SDS011;2914;42.668;23.346;2023-03-24T02:46:06;32.07;;;19.30;;
5776;SDS011;2914;42.668;23.346;2023-03-24T02:48:42;31.90;;;18.07;;
5776;SDS011;2914;42.668;23.346;2023-03-24T02:51:15;29.47;;;19.27;;
5776;SDS011;2914;42.668;23.346;2023-03-24T02:53:50;35.97;;;19.07;;
5776;SDS011;2914;42.668;23.346;2023-03-24T02:56:31;35.53;;;19.40;;
5776;SDS011;2914;42.668;23.346;2023-03-24T02:59:03;32.50;;;18.40;;
5776;SDS011;2914;42.668;23.346;2023-03-24T03:01:35;35.83;;;18.70;;
5776;SDS011;2914;42.668;23.346;2023-03-24T03:04:07;33.83;;;19.50;;
5776;SDS011;2914;42.668;23.346;2023-03-24T03:06:39;28.80;;;17.33;;
5776;SDS011;2914;42.668;23.346;2023-03-24T03:09:11;34.70;;;19.93;;
5776;SDS011;2914;42.668;23.346;2023-03-24T03:11:42;31.20;;;18.40;;
5776;SDS011;2914;42.668;23.346;2023-03-24T03:14:14;28.33;;;17.47;;
5776;SDS011;2914;42.668;23.346;2023-03-24T03:16:47;27.17;;;17.40;;
5776;SDS011;2914;42.668;23.346;2023-03-24T03:19:20;29.40;;;18.23;;
5776;SDS011;2914;42.668;23.346;2023-03-24T03:21:51;30.27;;;18.37;;
5776;SDS011;2914;42.668;23.346;2023-03-24T03:24:24;39.13;;;17.83;;
5776;SDS011;2914;42.668;23.346;2023-03-24T03:26:57;29.23;;;18.53;;
5776;SDS011;2914;42.668;23.346;2023-03-24T03:29:29;41.53;;;18.30;;
5776;SDS011;2914;42.668;23.346;2023-03-24T03:32:01;30.77;;;19.43;;
5776;SDS011;2914;42.668;23.346;2023-03-24T03:34:35;28.67;;;18.67;;
5776;SDS011;2914;42.668;23.346;2023-03-24T03:37:06;33.47;;;19.63;;
5776;SDS011;2914;42.668;23.346;2023-03-24T03:39:39;33.63;;;17.40;;
5776;SDS011;2914;42.668;23.346;2023-03-24T03:42:10;30.67;;;17.73;;
5776;SDS011;2914;42.668;23.346;2023-03-24T03:44:40;31.93;;;19.43;;
5776;SDS011;2914;42.668;23.346;2023-03-24T03:47:09;44.00;;;18.90;;
5776;SDS011;2914;42.668;23.346;2023-03-24T03:49:40;30.83;;;18.37;;
5776;SDS011;2914;42.668;23.346;2023-03-24T03:52:10;25.93;;;17.97;;
5776;SDS011;2914;42.668;23.346;2023-03-24T03:54:40;29.97;;;17.20;;
5776;SDS011;2914;42.668;23.346;2023-03-24T03:57:11;28.43;;;17.47;;
5776;SDS011;2914;42.668;23.346;2023-03-24T03:59:41;29.33;;;17.03;;
5776;SDS011;2914;42.668;23.346;2023-03-24T04:02:15;26.00;;;17.03;;
5776;SDS011;2914;42.668;23.346;2023-03-24T04:04:53;31.80;;;18.20;;
5776;SDS011;2914;42.668;23.346;2023-03-24T04:07:32;32.43;;;16.27;;
5776;SDS011;2914;42.668;23.346;2023-03-24T04:10:06;27.03;;;15.90;;
5776;SDS011;2914;42.668;23.346;2023-03-24T04:12:42;27.67;;;16.83;;
5776;SDS011;2914;42.668;23.346;2023-03-24T04:15:38;22.90;;;15.10;;
5776;SDS011;2914;42.668;23.346;2023-03-24T04:18:15;31.90;;;14.43;;
5776;SDS011;2914;42.668;23.346;2023-03-24T04:21:02;24.40;;;15.83;;
5776;SDS011;2914;42.668;23.346;2023-03-24T04:23:36;28.23;;;16.60;;
5776;SDS011;2914;42.668;23.346;2023-03-24T04:26:13;28.03;;;18.10;;
5776;SDS011;2914;42.668;23.346;2023-03-24T04:31:33;27.57;;;16.10;;
5776;SDS011;2914;42.668;23.346;2023-03-24T04:34:04;28.33;;;16.90;;
5776;SDS011;2914;42.668;23.346;2023-03-24T04:36:44;28.87;;;16.90;;
5776;SDS011;2914;42.668;23.346;2023-03-24T04:39:19;32.00;;;19.47;;
5776;SDS011;2914;42.668;23.346;2023-03-24T04:41:57;28.97;;;15.07;;
5776;SDS011;2914;42.668;23.346;2023-03-24T04:44:30;24.93;;;14.87;;
5776;SDS011;2914;42.668;23.346;2023-03-24T04:47:08;22.93;;;13.03;;
5776;SDS011;2914;42.668;23.346;2023-03-24T04:49:39;25.83;;;15.30;;
5776;SDS011;2914;42.668;23.346;2023-03-24T04:52:13;20.70;;;13.43;;
5776;SDS011;2914;42.668;23.346;2023-03-24T04:54:43;20.97;;;13.23;;
5776;SDS011;2914;42.668;23.346;2023-03-24T04:57:14;20.13;;;12.63;;
5776;SDS011;2914;42.668;23.346;2023-03-24T04:59:43;25.33;;;13.10;;
5776;SDS011;2914;42.668;23.346;2023-03-24T05:02:14;18.00;;;12.20;;
5776;SDS011;2914;42.668;23.346;2023-03-24T05:04:43;20.50;;;13.47;;
5776;SDS011;2914;42.668;23.346;2023-03-24T05:07:12;16.00;;;11.57;;
5776;SDS011;2914;42.668;23.346;2023-03-24T05:09:42;16.50;;;10.50;;
5776;SDS011;2914;42.668;23.346;2023-03-24T05:12:11;17.00;;;11.47;;
5776;SDS011;2914;42.668;23.346;2023-03-24T05:14:56;25.10;;;15.20;;
5776;SDS011;2914;42.668;23.346;2023-03-24T05:17:26;22.93;;;14.90;;
5776;SDS011;2914;42.668;23.346;2023-03-24T05:19:55;20.80;;;14.40;;
5776;SDS011;2914;42.668;23.346;2023-03-24T05:22:24;18.13;;;12.30;;
5776;SDS011;2914;42.668;23.346;2023-03-24T05:24:53;22.03;;;13.40;;
5776;SDS011;2914;42.668;23.346;2023-03-24T05:27:22;14.43;;;10.57;;
5776;SDS011;2914;42.668;23.346;2023-03-24T05:29:51;29.53;;;13.00;;
5776;SDS011;2914;42.668;23.346;2023-03-24T05:32:20;28.07;;;18.53;;
5776;SDS011;2914;42.668;23.346;2023-03-24T05:34:49;26.63;;;15.70;;
5776;SDS011;2914;42.668;23.346;2023-03-24T05:37:18;16.50;;;13.10;;
5776;SDS011;2914;42.668;23.346;2023-03-24T05:39:48;27.93;;;12.60;;
5776;SDS011;2914;42.668;23.346;2023-03-24T05:42:17;20.63;;;13.50;;
5776;SDS011;2914;42.668;23.346;2023-03-24T05:44:47;24.80;;;14.67;;
5776;SDS011;2914;42.668;23.346;2023-03-24T05:47:16;18.93;;;13.53;;
5776;SDS011;2914;42.668;23.346;2023-03-24T05:49:45;24.63;;;14.43;;
5776;SDS011;2914;42.668;23.346;2023-03-24T05:52:15;20.20;;;14.13;;
5776;SDS011;2914;42.668;23.346;2023-03-24T05:54:45;23.13;;;14.63;;
5776;SDS011;2914;42.668;23.346;2023-03-24T05:57:17;23.43;;;14.80;;
5776;SDS011;2914;42.668;23.346;2023-03-24T05:59:47;32.07;;;14.50;;
5776;SDS011;2914;42.668;23.346;2023-03-24T06:02:17;28.77;;;14.63;;
5776;SDS011;2914;42.668;23.346;2023-03-24T06:07:22;34.47;;;15.50;;
5776;SDS011;2914;42.668;23.346;2023-03-24T06:09:53;24.97;;;15.13;;
5776;SDS011;2914;42.668;23.346;2023-03-24T06:12:25;23.13;;;14.53;;
5776;SDS011;2914;42.668;23.346;2023-03-24T06:15:05;25.60;;;15.30;;
5776;SDS011;2914;42.668;23.346;2023-03-24T06:17:36;25.70;;;16.40;;
5776;SDS011;2914;42.668;23.346;2023-03-24T06:20:08;27.47;;;16.00;;
5776;SDS011;2914;42.668;23.346;2023-03-24T06:22:42;31.27;;;15.73;;
5776;SDS011;2914;42.668;23.346;2023-03-24T06:25:13;25.90;;;16.83;;
5776;SDS011;2914;42.668;23.346;2023-03-24T06:27:45;25.40;;;16.57;;
5776;SDS011;2914;42.668;23.346;2023-03-24T06:30:23;28.40;;;16.80;;
5776;SDS011;2914;42.668;23.346;2023-03-24T06:32:52;26.67;;;14.90;;
5776;SDS011;2914;42.668;23.346;2023-03-24T06:35:22;20.50;;;14.53;;
5776;SDS011;2914;42.668;23.346;2023-03-24T06:38:06;25.63;;;16.47;;
5776;SDS011;2914;42.668;23.346;2023-03-24T06:40:36;24.67;;;16.30;;
5776;SDS011;2914;42.668;23.346;2023-03-24T06:43:14;26.30;;;15.70;;
5776;SDS011;2914;42.668;23.346;2023-03-24T06:45:43;24.50;;;15.40;;
5776;SDS011;2914;42.668;23.346;2023-03-24T06:48:12;26.20;;;16.03;;
5776;SDS011;2914;42.668;23.346;2023-03-24T06:50:41;33.10;;;16.40;;
5776;SDS011;2914;42.668;23.346;2023-03-24T06:53:10;29.97;;;16.40;;
5776;SDS011;2914;42.668;23.346;2023-03-24T06:55:39;32.87;;;18.73;;
5776;SDS011;2914;42.668;23.346;2023-03-24T06:58:08;40.70;;;18.60;;
5776;SDS011;2914;42.668;23.346;2023-03-24T07:00:39;42.53;;;17.90;;
5776;SDS011;2914;42.668;23.346;2023-03-24T07:03:08;24.63;;;17.40;;
5776;SDS011;2914;42.668;23.346;2023-03-24T07:05:39;26.97;;;17.10;;
5776;SDS011;2914;42.668;23.346;2023-03-24T07:08:10;33.73;;;16.60;;
5776;SDS011;2914;42.668;23.346;2023-03-24T07:10:39;31.33;;;18.17;;
5776;SDS011;2914;42.668;23.346;2023-03-24T07:13:09;28.20;;;18.20;;
5776;SDS011;2914;42.668;23.346;2023-03-24T07:15:38;34.10;;;16.37;;
5776;SDS011;2914;42.668;23.346;2023-03-24T07:18:07;29.57;;;18.10;;
5776;SDS011;2914;42.668;23.346;2023-03-24T07:20:38;36.23;;;18.17;;
5776;SDS011;2914;42.668;23.346;2023-03-24T07:23:08;29.10;;;18.10;;
5776;SDS011;2914;42.668;23.346;2023-03-24T07:25:39;23.50;;;16.40;;
5776;SDS011;2914;42.668;23.346;2023-03-24T07:28:10;28.83;;;17.80;;
5776;SDS011;2914;42.668;23.346;2023-03-24T07:30:39;27.60;;;17.57;;
5776;SDS011;2914;42.668;23.346;2023-03-24T07:33:08;31.30;;;18.67;;
5776;SDS011;2914;42.668;23.346;2023-03-24T07:35:37;29.40;;;18.03;;
5776;SDS011;2914;42.668;23.346;2023-03-24T07:38:07;31.87;;;18.70;;
5776;SDS011;2914;42.668;23.346;2023-03-24T07:40:36;28.40;;;19.43;;
5776;SDS011;2914;42.668;23.346;2023-03-24T07:43:05;46.00;;;18.40;;
5776;SDS011;2914;42.668;23.346;2023-03-24T07:45:34;28.87;;;19.00;;
5776;SDS011;2914;42.668;23.346;2023-03-24T07:48:04;31.90;;;19.60;;
5776;SDS011;2914;42.668;23.346;2023-03-24T07:50:42;31.97;;;18.50;;
5776;SDS011;2914;42.668;23.346;2023-03-24T07:53:11;28.90;;;18.37;;
5776;SDS011;2914;42.668;23.346;2023-03-24T07:55:42;28.10;;;17.50;;
5776;SDS011;2914;42.668;23.346;2023-03-24T07:58:11;29.20;;;16.20;;
5776;SDS011;2914;42.668;23.346;2023-03-24T08:00:40;31.73;;;17.90;;
5776;SDS011;2914;42.668;23.346;2023-03-24T08:03:10;28.90;;;18.63;;
5776;SDS011;2914;42.668;23.346;2023-03-24T08:05:40;37.00;;;18.60;;
5776;SDS011;2914;42.668;23.346;2023-03-24T08:08:10;30.13;;;17.57;;
5776;SDS011;2914;42.668;23.346;2023-03-24T08:10:39;34.30;;;17.80;;
5776;SDS011;2914;42.668;23.346;2023-03-24T08:13:10;26.90;;;18.07;;
5776;SDS011;2914;42.668;23.346;2023-03-24T08:15:39;39.10;;;18.00;;
5776;SDS011;2914;42.668;23.346;2023-03-24T08:18:08;34.10;;;19.50;;
5776;SDS011;2914;42.668;23.346;2023-03-24T08:20:37;30.13;;;18.10;;
5776;SDS011;2914;42.668;23.346;2023-03-24T08:23:07;35.40;;;18.07;;
5776;SDS011;2914;42.668;23.346;2023-03-24T08:25:36;28.57;;;17.57;;
5776;SDS011;2914;42.668;23.346;2023-03-24T08:28:05;30.87;;;19.00;;
5776;SDS011;2914;42.668;23.346;2023-03-24T08:30:34;25.90;;;17.30;;
5776;SDS011;2914;42.668;23.346;2023-03-24T08:33:03;25.37;;;18.70;;
5776;SDS011;2914;42.668;23.346;2023-03-24T08:35:33;29.00;;;18.33;;
5776;SDS011;2914;42.668;23.346;2023-03-24T08:38:05;43.93;;;18.20;;
5776;SDS011;2914;42.668;23.346;2023-03-24T08:40:37;37.93;;;15.80;;
5776;SDS011;2914;42.668;23.346;2023-03-24T08:43:08;29.63;;;18.60;;
5776;SDS011;2914;42.668;23.346;2023-03-24T08:45:40;25.93;;;16.80;;
5776;SDS011;2914;42.668;23.346;2023-03-24T08:48:09;30.93;;;16.30;;
5776;SDS011;2914;42.668;23.346;2023-03-24T08:50:39;23.80;;;15.90;;
5776;SDS011;2914;42.668;23.346;2023-03-24T08:53:09;33.20;;;17.53;;
5776;SDS011;2914;42.668;23.346;2023-03-24T08:55:39;31.60;;;17.63;;
5776;SDS011;2914;42.668;23.346;2023-03-24T08:58:13;26.53;;;17.00;;
5776;SDS011;2914;42.668;23.346;2023-03-24T09:00:44;21.67;;;16.80;;
5776;SDS011;2914;42.668;23.346;2023-03-24T09:03:15;34.13;;;17.60;;
5776;SDS011;2914;42.668;23.346;2023-03-24T09:05:47;24.17;;;16.13;;
5776;SDS011;2914;42.668;23.346;2023-03-24T09:08:17;27.37;;;16.83;;
5776;SDS011;2914;42.668;23.346;2023-03-24T09:10:46;25.70;;;19.13;;
5776;SDS011;2914;42.668;23.346;2023-03-24T09:13:16;25.67;;;16.87;;
5776;SDS011;2914;42.668;23.346;2023-03-24T09:15:47;33.80;;;16.60;;
5776;SDS011;2914;42.668;23.346;2023-03-24T09:18:17;33.37;;;17.50;;
5776;SDS011;2914;42.668;23.346;2023-03-24T09:20:47;26.70;;;16.20;;
5776;SDS011;2914;42.668;23.346;2023-03-24T09:23:16;29.43;;;17.57;;
5776;SDS011;2914;42.668;23.346;2023-03-24T09:25:47;27.33;;;15.80;;
5776;SDS011;2914;42.668;23.346;2023-03-24T09:28:17;28.00;;;17.10;;
5776;SDS011;2914;42.668;23.346;2023-03-24T09:30:46;29.60;;;16.90;;
5776;SDS011;2914;42.668;23.346;2023-03-24T09:33:16;31.30;;;16.90;;
5776;SDS011;2914;42.668;23.346;2023-03-24T09:35:48;40.13;;;17.90;;
5776;SDS011;2914;42.668;23.346;2023-03-24T09:38:20;24.30;;;16.73;;
5776;SDS011;2914;42.668;23.346;2023-03-24T09:40:52;23.17;;;15.77;;
5776;SDS011;2914;42.668;23.346;2023-03-24T09:43:25;24.50;;;16.07;;
5776;SDS011;2914;42.668;23.346;2023-03-24T09:45:56;24.90;;;16.27;;
5776;SDS011;2914;42.668;23.346;2023-03-24T09:48:32;35.07;;;17.80;;
5776;SDS011;2914;42.668;23.346;2023-03-24T09:51:05;22.30;;;16.40;;
5776;SDS011;2914;42.668;23.346;2023-03-24T09:53:39;25.23;;;16.83;;
5776;SDS011;2914;42.668;23.346;2023-03-24T09:56:12;25.37;;;16.03;;
5776;SDS011;2914;42.668;23.346;2023-03-24T09:58:44;28.40;;;17.37;;
5776;SDS011;2914;42.668;23.346;2023-03-24T10:01:16;27.13;;;16.17;;
5776;SDS011;2914;42.668;23.346;2023-03-24T10:03:46;35.20;;;16.20;;
5776;SDS011;2914;42.668;23.346;2023-03-24T10:06:16;25.23;;;16.67;;
5776;SDS011;2914;42.668;23.346;2023-03-24T10:09:06;22.90;;;15.10;;
5776;SDS011;2914;42.668;23.346;2023-03-24T10:11:40;27.17;;;15.20;;
5776;SDS011;2914;42.668;23.346;2023-03-24T10:14:16;23.83;;;16.53;;
5776;SDS011;2914;42.668;23.346;2023-03-24T10:16:49;23.30;;;15.80;;
5776;SDS011;2914;42.668;23.346;2023-03-24T10:19:23;25.53;;;15.67;;
5776;SDS011;2914;42.668;23.346;2023-03-24T10:21:56;33.57;;;16.07;;
5776;SDS011;2914;42.668;23.346;2023-03-24T10:24:30;25.60;;;16.17;;
5776;SDS011;2914;42.668;23.346;2023-03-24T10:27:01;27.03;;;15.67;;
5776;SDS011;2914;42.668;23.346;2023-03-24T10:29:34;31.70;;;15.57;;
5776;SDS011;2914;42.668;23.346;2023-03-24T10:32:05;26.40;;;15.57;;
5776;SDS011;2914;42.668;23.346;2023-03-24T10:34:37;23.03;;;16.53;;
5776;SDS011;2914;42.668;23.346;2023-03-24T10:37:09;20.63;;;14.90;;
5776;SDS011;2914;42.668;23.346;2023-03-24T10:39:41;25.50;;;15.80;;
5776;SDS011;2914;42.668;23.346;2023-03-24T10:42:20;21.63;;;15.63;;
5776;SDS011;2914;42.668;23.346;2023-03-24T10:44:51;19.90;;;13.70;;
5776;SDS011;2914;42.668;23.346;2023-03-24T10:47:23;21.00;;;14.37;;
5776;SDS011;2914;42.668;23.346;2023-03-24T10:49:54;23.23;;;13.10;;
5776;SDS011;2914;42.668;23.346;2023-03-24T10:52:25;25.50;;;14.50;;
5776;SDS011;2914;42.668;23.346;2023-03-24T10:54:57;20.30;;;13.60;;
5776;SDS011;2914;42.668;23.346;2023-03-24T10:57:28;21.40;;;14.00;;
5776;SDS011;2914;42.668;23.346;2023-03-24T10:59:59;24.97;;;13.30;;
5776;SDS011;2914;42.668;23.346;2023-03-24T11:02:34;19.70;;;12.53;;
5776;SDS011;2914;42.668;23.346;2023-03-24T11:05:12;17.13;;;12.10;;
5776;SDS011;2914;42.668;23.346;2023-03-24T11:07:45;16.90;;;12.70;;
5776;SDS011;2914;42.668;23.346;2023-03-24T11:10:17;26.73;;;14.77;;
5776;SDS011;2914;42.668;23.346;2023-03-24T11:12:58;18.80;;;11.77;;
5776;SDS011;2914;42.668;23.346;2023-03-24T11:15:30;20.93;;;11.63;;
5776;SDS011;2914;42.668;23.346;2023-03-24T11:18:06;19.40;;;11.57;;
5776;SDS011;2914;42.668;23.346;2023-03-24T11:20:42;14.90;;;10.60;;
5776;SDS011;2914;42.668;23.346;2023-03-24T11:23:15;19.27;;;12.20;;
5776;SDS011;2914;42.668;23.346;2023-03-24T11:25:46;11.50;;;10.30;;
5776;SDS011;2914;42.668;23.346;2023-03-24T11:28:19;14.80;;;10.70;;
5776;SDS011;2914;42.668;23.346;2023-03-24T11:30:50;20.67;;;10.60;;
5776;SDS011;2914;42.668;23.346;2023-03-24T11:33:21;14.40;;;10.83;;
5776;SDS011;2914;42.668;23.346;2023-03-24T11:35:53;21.37;;;11.87;;
5776;SDS011;2914;42.668;23.346;2023-03-24T11:38:28;18.30;;;9.83;;
5776;SDS011;2914;42.668;23.346;2023-03-24T11:40:58;11.83;;;9.10;;
5776;SDS011;2914;42.668;23.346;2023-03-24T11:43:30;12.80;;;9.73;;
5776;SDS011;2914;42.668;23.346;2023-03-24T11:46:00;19.13;;;10.20;;
5776;SDS011;2914;42.668;23.346;2023-03-24T11:48:32;15.90;;;9.10;;
5776;SDS011;2914;42.668;23.346;2023-03-24T11:51:05;15.13;;;8.03;;
5776;SDS011;2914;42.668;23.346;2023-03-24T11:53:40;10.77;;;7.77;;
5776;SDS011;2914;42.668;23.346;2023-03-24T11:56:10;14.07;;;7.97;;
5776;SDS011;2914;42.668;23.346;2023-03-24T11:58:42;8.10;;;6.50;;
5776;SDS011;2914;42.668;23.346;2023-03-24T12:01:15;10.53;;;6.73;;
5776;SDS011;2914;42.668;23.346;2023-03-24T12:03:54;7.80;;;7.00;;
5776;SDS011;2914;42.668;23.346;2023-03-24T12:06:36;20.00;;;7.57;;
5776;SDS011;2914;42.668;23.346;2023-03-24T12:09:12;16.33;;;7.30;;
5776;SDS011;2914;42.668;23.346;2023-03-24T12:11:57;8.80;;;6.17;;
5776;SDS011;2914;42.668;23.346;2023-03-24T12:14:41;15.20;;;6.53;;
5776;SDS011;2914;42.668;23.346;2023-03-24T12:17:16;7.13;;;6.40;;
5776;SDS011;2914;42.668;23.346;2023-03-24T12:19:52;13.20;;;6.57;;
5776;SDS011;2914;42.668;23.346;2023-03-24T12:22:30;11.10;;;6.00;;
5776;SDS011;2914;42.668;23.346;2023-03-24T12:25:15;14.90;;;6.20;;
5776;SDS011;2914;42.668;23.346;2023-03-24T12:27:52;7.00;;;5.43;;
5776;SDS011;2914;42.668;23.346;2023-03-24T12:30:37;9.57;;;5.43;;
5776;SDS011;2914;42.668;23.346;2023-03-24T12:33:15;6.30;;;5.80;;
5776;SDS011;2914;42.668;23.346;2023-03-24T12:35:51;7.03;;;6.33;;
5776;SDS011;2914;42.668;23.346;2023-03-24T12:44:08;13.40;;;6.00;;
5776;SDS011;2914;42.668;23.346;2023-03-24T12:47:08;9.97;;;5.83;;
5776;SDS011;2914;42.668;23.346;2023-03-24T12:49:43;24.87;;;6.83;;
5776;SDS011;2914;42.668;23.346;2023-03-24T12:52:27;8.57;;;5.73;;
5776;SDS011;2914;42.668;23.346;2023-03-24T12:55:07;15.93;;;5.83;;
5776;SDS011;2914;42.668;23.346;2023-03-24T12:57:40;5.57;;;4.40;;
5776;SDS011;2914;42.668;23.346;2023-03-24T13:00:16;6.30;;;3.60;;
5776;SDS011;2914;42.668;23.346;2023-03-24T13:02:49;6.03;;;4.93;;
5776;SDS011;2914;42.668;23.346;2023-03-24T13:05:34;7.47;;;4.73;;
5776;SDS011;2914;42.668;23.346;2023-03-24T13:08:10;4.80;;;4.43;;
5776;SDS011;2914;42.668;23.346;2023-03-24T13:10:48;4.17;;;3.87;;
5776;SDS011;2914;42.668;23.346;2023-03-24T13:13:20;5.40;;;4.20;;
5776;SDS011;2914;42.668;23.346;2023-03-24T13:16:05;3.77;;;3.57;;
5776;SDS011;2914;42.668;23.346;2023-03-24T13:18:38;5.00;;;3.77;;
5776;SDS011;2914;42.668;23.346;2023-03-24T13:21:17;5.50;;;4.50;;
5776;SDS011;2914;42.668;23.346;2023-03-24T13:23:49;11.23;;;4.30;;
5776;SDS011;2914;42.668;23.346;2023-03-24T13:26:24;4.20;;;3.90;;
5776;SDS011;2914;42.668;23.346;2023-03-24T13:31:51;6.50;;;3.30;;
5776;SDS011;2914;42.668;23.346;2023-03-24T13:34:24;3.70;;;3.40;;
5776;SDS011;2914;42.668;23.346;2023-03-24T13:36:57;5.17;;;3.63;;
5776;SDS011;2914;42.668;23.346;2023-03-24T13:39:28;5.23;;;3.50;;
5776;SDS011;2914;42.668;23.346;2023-03-24T13:42:26;3.97;;;3.70;;
5776;SDS011;2914;42.668;23.346;2023-03-24T13:45:20;3.70;;;3.50;;
5776;SDS011;2914;42.668;23.346;2023-03-24T13:48:02;4.43;;;3.83;;
5776;SDS011;2914;42.668;23.346;2023-03-24T13:50:47;3.90;;;3.60;;
5776;SDS011;2914;42.668;23.346;2023-03-24T13:53:16;6.70;;;4.30;;
5776;SDS011;2914;42.668;23.346;2023-03-24T13:56:00;4.20;;;3.80;;
5776;SDS011;2914;42.668;23.346;2023-03-24T14:01:30;4.70;;;3.27;;
5776;SDS011;2914;42.668;23.346;2023-03-24T14:06:50;4.10;;;3.90;;
5776;SDS011;2914;42.668;23.346;2023-03-24T14:09:20;4.83;;;3.73;;
5776;SDS011;2914;42.668;23.346;2023-03-24T14:12:19;5.47;;;3.83;;
5776;SDS011;2914;42.668;23.346;2023-03-24T14:18:12;3.33;;;3.20;;
5776;SDS011;2914;42.668;23.346;2023-03-24T14:20:57;3.60;;;3.30;;
5776;SDS011;2914;42.668;23.346;2023-03-24T14:23:30;3.87;;;3.60;;
5776;SDS011;2914;42.668;23.346;2023-03-24T14:26:03;9.33;;;3.90;;
5776;SDS011;2914;42.668;23.346;2023-03-24T14:28:38;3.80;;;3.50;;
5776;SDS011;2914;42.668;23.346;2023-03-24T14:31:09;4.00;;;3.70;;
5776;SDS011;2914;42.668;23.346;2023-03-24T14:33:59;4.13;;;3.73;;
5776;SDS011;2914;42.668;23.346;2023-03-24T14:36:36;4.57;;;4.17;;
5776;SDS011;2914;42.668;23.346;2023-03-24T14:39:07;4.00;;;3.50;;
5776;SDS011;2914;42.668;23.346;2023-03-24T14:41:46;11.53;;;3.20;;
5776;SDS011;2914;42.668;23.346;2023-03-24T14:47:22;3.87;;;3.50;;
5776;SDS011;2914;42.668;23.346;2023-03-24T14:49:54;3.40;;;3.10;;
5776;SDS011;2914;42.668;23.346;2023-03-24T14:52:26;3.67;;;3.40;;
5776;SDS011;2914;42.668;23.346;2023-03-24T14:54:57;3.30;;;3.10;;
5776;SDS011;2914;42.668;23.346;2023-03-24T14:57:29;14.80;;;3.93;;
5776;SDS011;2914;42.668;23.346;2023-03-24T15:00:07;4.53;;;4.00;;
5776;SDS011;2914;42.668;23.346;2023-03-24T15:02:50;3.70;;;3.40;;
5776;SDS011;2914;42.668;23.346;2023-03-24T15:05:23;8.40;;;3.20;;
5776;SDS011;2914;42.668;23.346;2023-03-24T15:08:00;6.33;;;3.50;;
5776;SDS011;2914;42.668;23.346;2023-03-24T15:10:36;6.20;;;4.23;;
5776;SDS011;2914;42.668;23.346;2023-03-24T15:13:27;4.80;;;3.43;;
5776;SDS011;2914;42.668;23.346;2023-03-24T15:16:03;5.63;;;3.63;;
5776;SDS011;2914;42.668;23.346;2023-03-24T15:18:35;6.17;;;3.77;;
5776;SDS011;2914;42.668;23.346;2023-03-24T15:21:13;3.70;;;3.50;;
5776;SDS011;2914;42.668;23.346;2023-03-24T15:23:48;3.40;;;3.20;;
5776;SDS011;2914;42.668;23.346;2023-03-24T15:26:18;4.00;;;3.70;;
5776;SDS011;2914;42.668;23.346;2023-03-24T15:28:57;4.07;;;3.43;;
5776;SDS011;2914;42.668;23.346;2023-03-24T15:31:27;12.43;;;3.57;;
5776;SDS011;2914;42.668;23.346;2023-03-24T15:34:07;5.57;;;3.97;;
5776;SDS011;2914;42.668;23.346;2023-03-24T15:36:53;3.63;;;3.43;;
5776;SDS011;2914;42.668;23.346;2023-03-24T15:39:24;4.73;;;4.43;;
5776;SDS011;2914;42.668;23.346;2023-03-24T15:41:55;3.60;;;3.27;;
5776;SDS011;2914;42.668;23.346;2023-03-24T15:44:25;7.60;;;4.17;;
5776;SDS011;2914;42.668;23.346;2023-03-24T15:46:57;8.73;;;4.97;;